Flight Track Log - Related Links

Times and Time Zones

All times are in EDT time to prevent confusion due to time zone crossing. See the ASQ4086 flight status page for this flight to view local times or setup timezone preferences in your user account.

Time Position Orientation Groundspeed Altitude Reporting Facility
EDT Latitude Longitude Course Direction KTS MPH feet Rate Location/Type
Wed 04:35:54 PM 29.9683 -95.3475 333° Northwest 137 158 600  Level Houston Center
Wed 04:36:55 PM 29.9939 -95.3058 55° Northeast 244 281 2,800 1,643 Climbing Houston Center
Wed 04:37:18 PM 30.0117 -95.3006 14° North 240 276 2,900 194 Climbing Houston Center
Wed 04:37:57 PM 30.0636 -95.2853 14° North 258 297 3,000 194 Climbing Houston Center
Wed 04:38:20 PM 30.0825 -95.2803 13° North 253 291 3,100 1,522 Climbing Houston Center
Wed 04:39:00 PM 30.2069 -95.4570 333° Northwest  Level FlightAware Approximate
Wed 04:39:04 PM 30.1442 -95.2731 North 265 305 4,700  Level Houston Center
Wed 04:39:22 PM 30.1533 -95.2767 341° North 262 302 5,100 3,556 Climbing Houston Center
Wed 04:40:00 PM 30.2621 -95.4896 333° Northwest  Level FlightAware Approximate
Wed 04:40:25 PM 30.2211 -95.3414 320° Northwest 264 304 9,500  Level Houston Center
Wed 04:41:00 PM 30.3174 -95.5222 333° Northwest  Level FlightAware Approximate
Wed 04:41:27 PM 30.2789 -95.3969 320° Northwest 270 311 12,000  Level Houston Center
Wed 04:42:29 PM 30.3458 -95.4647 319° Northwest 314 361 13,600 1,742 Climbing Houston Center
Wed 04:43:31 PM 30.4183 -95.5356 320° Northwest 337 388 15,600 1,887 Climbing Houston Center
Wed 04:44:33 PM 30.4942 -95.6108 319° Northwest 355 409 17,500 1,984 Climbing Houston Center
Wed 04:45:35 PM 30.5992 -95.6853 329° Northwest 376 433 19,700 1,839 Climbing Houston Center
Wed 04:46:37 PM 30.6853 -95.7317 335° Northwest 375 432 21,300 1,597 Climbing Houston Center
Wed 04:47:39 PM 30.7819 -95.7831 335° Northwest 380 437 23,000 1,296 Climbing Houston Center
Wed 04:48:42 PM 30.9061 -95.8497 335° Northwest 401 461 24,000 480 Climbing Houston Center
Wed 04:49:44 PM 31.0161 -95.9083 335° Northwest 426 490 24,000  Level Houston Center
Wed 04:50:46 PM 31.1267 -95.9658 336° Northwest 432 497 24,000  Level Houston Center
Wed 04:51:48 PM 31.2456 -95.9961 348° North 437 503 24,000  Level Houston Center
Wed 04:52:42 PM 31.3497 -96.0194 349° North 425 489 24,000  Level Fort Worth Center
Wed 04:53:42 PM 31.4689 -96.0494 348° North 433 498 24,000 -250 Level Fort Worth Center
Wed 04:54:42 PM 31.5864 -96.0817 347° North 423 487 23,500 -950 Descending Fort Worth Center
Wed 04:55:42 PM 31.7036 -96.1217 344° North 435 501 22,100 -1,500 Descending Fort Worth Center
Wed 04:56:42 PM 31.8147 -96.1592 344° North 427 491 20,500 -1,800 Descending Fort Worth Center
Wed 04:57:42 PM 31.9236 -96.1969 344° North 414 476 18,500 -2,050 Descending Fort Worth Center
Wed 04:58:42 PM 32.0367 -96.2344 344° North 392 451 16,400 -2,600 Descending Fort Worth Center
Wed 04:59:42 PM 32.1331 -96.2678 344° North 382 440 13,300 -3,700 Descending Fort Worth Center
Wed 05:00:42 PM 32.2272 -96.2983 345° North 358 412 9,000 -1,800 Descending Fort Worth Center
Wed 05:01:42 PM 32.3089 -96.3269 344° North 320 368 9,700  Climbing Fort Worth Center
Wed 05:02:42 PM 32.3822 -96.3531 343° North 280 322 9,000 -450 Descending Fort Worth Center
Wed 05:03:42 PM 32.4556 -96.3794 343° North 274 315 8,800 -650 Descending Fort Worth Center
Wed 05:04:42 PM 32.5103 -96.4503 313° West 274 315 7,700 -1,000 Descending Fort Worth Center
Wed 05:05:42 PM 32.5794 -96.4939 332° Northwest 281 323 6,800 -1,050 Descending Fort Worth Center
Wed 05:06:42 PM 32.6486 -96.5300 336° Northwest 276 318 5,600 -900 Descending Fort Worth Center
Wed 05:07:42 PM 32.7117 -96.5814 326° Northwest 269 310 5,000 -250 Descending Fort Worth Center
Wed 05:08:42 PM 32.7683 -96.6328 323° Northwest 280 322 5,100  Climbing Fort Worth Center
Wed 05:09:12 PM 32.8000 -96.6667 318° Northwest 279 321 5,000 -600 Descending Dallas / Fort Worth TRACON
Wed 05:10:12 PM 32.8667 -96.7167 328° Northwest 246 283 4,200 -750 Descending Dallas / Fort Worth TRACON
Wed 05:11:12 PM 32.9000 -96.7667 308° West 234 269 3,500 -550 Descending Dallas / Fort Worth TRACON
Wed 05:12:12 PM 32.9333 -96.8333 301° West 221 254 3,100 -400 Descending Dallas / Fort Worth TRACON

Login

Don't have an account? Register now (free) for customized features, flight alerts, and more!